Weather observations for the past three days for
Pohnpei Island
Imperial (Metric)
Date Time (+11) Wind (mph) Vis. (mi.) Weather Sky Cond. Temperature (ºF) Relative Humidity Wind Chill (°F) Heat Index (°F) Pressure Precipitation (in)
Air Dwpt 6 hour altimeter (in) sea level (mb) 1 hr 3 hr 6 hr
Max. Min.
04 14:13 E 9 13.00 Overcast BKN017TCU OVC130 78.8 77 94% 83 29.78 0.0
04 12:56 E 9 13.00 Overcast BKN017TCU OVC130 86 77 75% 97 29.78 0.0
04 12:18 SE 3 13.00 Overcast BKN017TCU OVC130 80.6 77 89% 87 29.81 0.0
04 11:56 SE 5 10.00 Showers Rain BKN017CB OVC130 78.8 77 94% 83 29.8 0.0
04 10:54 E 6 15.00 Overcast BKN018TCU OVC300 87.8 77 70% 100 29.79 0.0
04 09:57 E 7 15.00 Overcast BKN018TCU OVC300 87.8 77 70% 100 29.8 0.0
04 08:53 E 6 15.00 Overcast BKN018TCU OVC300 86 77 75% 97 29.8 0.0
04 07:58 SE 6 15.00 Overcast BKN018TCU BKN130 OVC300 84.2 77 79% 94 29.8 0.0
03 23:56 E 6 15.00 Overcast BKN018CB OVC300 78.8 77 94% 83 29.8 0.0
03 22:52 SE 6 5.00 Light Rain BKN018CB OVC130 78.8 77 94% 83 29.81 0.0
03 21:55 SE 6 5.00 Light Rain BKN018CB OVC130 80.6 78.8 94% 88 29.82 0.0
03 20:56 E 9 15.00 Mostly Cloudy SCT018CB BKN300 82.4 78.8 89% 92 29.79 0.0
03 19:53 E 5 15.00 Partly Cloudy SCT018 SCT300 82.4 78.8 89% 92 29.76 0.0
03 18:56 E 12 15.00 Overcast BKN018CB OVC300 86 78.8 79% 99 29.75 0.0
03 17:55 E 6 15.00 Overcast SCT018 BKN130 OVC300 86 78.8 79% 99 29.75 0.0
03 16:56 E 14 15.00 Overcast BKN018TCU BKN130 OVC300 87.8 78.8 75% 102 29.74 0.0
03 13:51 NE 12 15.00 Overcast BKN018TCU BKN130 OVC300 87.8 77 70% 100 29.77 0.0
03 12:52 NE 9 15.00 Overcast BKN018TCU BKN130 OVC300 87.8 77 70% 100 29.8 0.0
03 11:58 E 12 15.00 Overcast BKN018TCU BKN130 OVC300 87.8 77 70% 100 29.81 0.0
03 10:57 E 7 15.00 Overcast SCT018TCU BKN130 OVC300 87.8 77 70% 100 29.83 0.0
03 09:55 E 7 15.00 Overcast SCT017 BKN130 OVC300 87.8 77 70% 100 29.83 0.0
03 08:55 NE 5 15.00 Overcast SCT017 BKN120 OVC280 82.4 77 84% 91 29.82 0.0
03 08:25 E 8 15.00 Overcast SCT017 BKN120 OVC280 82.4 77 84% 91 29.82 0.0
02 16:57 E 5 15.00 Overcast BKN017TCU OVC130 82.4 77 84% 91 29.73 0.0
02 15:57 E 5 15.00 Overcast BKN017TCU OVC130 82.4 77 84% 91 29.74 0.0
02 14:57 E 3 15.00 Overcast BKN017TCU OVC130 80.6 77 89% 87 29.75 0.0
02 13:54 E 3 12.00 Light Rain BKN017TCU OVC130 80.6 77 89% 87 29.76 0.0
02 12:58 E 6 13.00 Light Showers Rain BKN018TCU OVC130 80.6 77 89% 87 29.77 0.0
02 11:56 E 5 12.00 Light Showers Rain BKN018TCU OVC130 82.4 77 84% 91 29.78 0.0
02 10:57 S 5 13.00 Light Rain BKN018TCU BKN130 OVC300 82.4 77 84% 91 29.79 0.0
02 09:58 SE 6 15.00 Overcast BKN018TCU BKN130 OVC300 86 77 75% 97 29.81 0.0
02 08:52 E 5 15.00 Overcast SCT018TCU BKN130 OVC300 84.2 77 79% 94 29.81 0.0
02 08:13 SE 3 15.00 Overcast SCT018TCU BKN130 OVC300 80.6 77 89% 87 29.8 0.0
Date Time (+11) Wind (mph) Vis. (mi.) Weather Sky Cond. Air Dwpt Max. Min. Relative Humidity Wind Chill (°F) Heat Index (°F) altimeter (in) sea level (mb) 1 hr 3 hr 6 hr
6 hour
Temperature (ºF) Pressure Precipitation (in)